Time;durP1;ratioP1;P1;durP2;ratioP2;P2;SDS_P1;SDS_P2;PMS_P1;PMS_P2;Temp;Humidity;BMP_temperature;BMP_pressure;BME280_temperature;BME280_humidity;BME280_pressure;Samples;Min_cycle;Max_cycle;Signal;HPM_P1;HPM_P2
2023/03/07 00:01:41;;;;;;;14.70;8.07;;;5.40;99.90;;;;;;5058390;28;20063;-82
2023/03/07 00:04:08;;;;;;;10.77;6.60;;;5.40;99.90;;;;;;5076371;28;20025;-81
2023/03/07 00:06:33;;;;;;;12.63;7.43;;;5.40;99.90;;;;;;5076314;28;20029;-81
2023/03/07 00:09:01;;;;;;;17.40;7.10;;;5.40;99.90;;;;;;5074728;28;20078;-81
2023/03/07 00:11:27;;;;;;;13.70;7.20;;;5.40;99.90;;;;;;5057232;28;20493;-80
2023/03/07 00:13:52;;;;;;;14.40;7.83;;;5.40;99.90;;;;;;5057800;28;20035;-81
2023/03/07 00:16:20;;;;;;;13.10;6.53;;;5.40;99.90;;;;;;5041386;28;20029;-81
2023/03/07 00:18:47;;;;;;;11.17;7.00;;;5.40;99.90;;;;;;5074726;28;20016;-81
2023/03/07 00:21:15;;;;;;;12.33;7.17;;;5.40;99.90;;;;;;5074358;28;20121;-81
2023/03/07 00:23:43;;;;;;;12.77;6.77;;;5.30;99.90;;;;;;5074607;28;20016;-81
2023/03/07 00:26:14;;;;;;;12.67;6.30;;;5.30;99.90;;;;;;5074275;28;20025;-82
2023/03/07 00:28:40;;;;;;;13.33;7.40;;;5.30;99.90;;;;;;5075900;28;20024;-82
2023/03/07 00:31:08;;;;;;;11.77;6.10;;;5.40;99.90;;;;;;5075709;28;20391;-82
2023/03/07 00:33:35;;;;;;;10.43;6.23;;;5.30;99.90;;;;;;5074824;28;20021;-82
2023/03/07 00:36:04;;;;;;;10.60;6.10;;;5.30;99.90;;;;;;5075538;28;20052;-82
2023/03/07 00:38:31;;;;;;;13.17;6.03;;;5.30;99.90;;;;;;5090676;28;20028;-81
2023/03/07 00:41:08;;;;;;;11.03;5.67;;;5.30;99.90;;;;;;5075414;28;20472;-82
2023/03/07 00:43:34;;;;;;;13.50;4.67;;;5.30;99.90;;;;;;5074541;28;20120;-83
2023/03/07 00:46:00;;;;;;;11.13;5.27;;;5.30;99.90;;;;;;5074628;28;20032;-83
2023/03/07 00:48:27;;;;;;;11.23;4.90;;;5.30;99.90;;;;;;5074149;28;20028;-82
2023/03/07 00:50:53;;;;;;;12.27;5.33;;;5.30;99.90;;;;;;5074983;28;20090;-82
2023/03/07 00:53:19;;;;;;;13.73;6.10;;;5.40;99.90;;;;;;5073560;28;20488;-82
2023/03/07 00:56:20;;;;;;;13.37;6.20;;;5.40;99.90;;;;;;5075470;28;20478;-82
2023/03/07 00:58:46;;;;;;;12.10;6.17;;;5.40;99.90;;;;;;5074101;28;20024;-82
2023/03/07 01:01:15;;;;;;;14.13;7.60;;;5.40;99.90;;;;;;5073950;28;20472;-82
2023/03/07 01:03:41;;;;;;;14.50;7.80;;;5.40;99.90;;;;;;5073539;28;20027;-82
2023/03/07 01:06:09;;;;;;;13.57;7.77;;;5.40;99.90;;;;;;5057237;28;20028;-83
2023/03/07 01:08:34;;;;;;;14.87;8.20;;;5.40;99.90;;;;;;5075211;28;20023;-83
2023/03/07 01:11:05;;;;;;;13.40;7.70;;;5.40;99.90;;;;;;5073440;28;20050;-82
2023/03/07 01:13:33;;;;;;;17.17;8.53;;;5.40;99.90;;;;;;5074919;28;20031;-84
2023/03/07 01:16:14;;;;;;;19.23;8.87;;;5.50;99.90;;;;;;5074483;28;20024;-84
2023/03/07 01:18:41;;;;;;;20.93;9.90;;;5.50;99.90;;;;;;5073420;28;20063;-83
2023/03/07 01:21:26;;;;;;;17.87;9.30;;;5.50;99.90;;;;;;5073741;28;20040;-84
2023/03/07 01:23:52;;;;;;;16.50;9.70;;;5.50;99.90;;;;;;5074559;28;20021;-83
2023/03/07 01:26:20;;;;;;;18.43;10.07;;;5.50;99.90;;;;;;5075044;28;20047;-82
2023/03/07 01:28:47;;;;;;;15.83;9.23;;;5.40;99.90;;;;;;5074248;28;20123;-82
2023/03/07 01:31:13;;;;;;;16.20;9.40;;;5.60;99.90;;;;;;5073153;28;20032;-83
2023/03/07 01:33:38;;;;;;;23.87;9.67;;;5.60;99.90;;;;;;5073646;28;20036;-83
2023/03/07 01:36:04;;;;;;;13.87;8.13;;;5.60;99.90;;;;;;5073442;28;20384;-84
2023/03/07 01:38:32;;;;;;;16.50;9.13;;;5.60;99.90;;;;;;5090194;28;20376;-83
2023/03/07 01:41:02;;;;;;;12.33;7.50;;;5.60;99.90;;;;;;5072526;28;20040;-83
2023/03/07 01:43:29;;;;;;;16.17;8.53;;;5.60;99.90;;;;;;5056679;28;20048;-82
2023/03/07 01:46:16;;;;;;;14.50;8.07;;;5.60;99.90;;;;;;5072873;28;20111;-82
2023/03/07 01:48:45;;;;;;;14.40;7.73;;;5.60;99.90;;;;;;5073024;28;20035;-82
2023/03/07 01:51:11;;;;;;;19.03;7.63;;;5.60;99.90;;;;;;5072660;28;20021;-81
2023/03/07 01:53:37;;;;;;;17.33;6.93;;;5.60;99.90;;;;;;5039442;28;20028;-82
2023/03/07 01:56:05;;;;;;;14.47;6.87;;;5.60;99.90;;;;;;5056420;28;20111;-82
2023/03/07 01:58:31;;;;;;;17.20;7.00;;;5.60;99.90;;;;;;5072514;28;20025;-83
2023/03/07 02:00:57;;;;;;;13.50;7.87;;;5.60;99.90;;;;;;5072470;28;20035;-82
2023/03/07 02:03:39;;;;;;;16.93;7.43;;;5.50;99.90;;;;;;5072695;28;20016;-82
2023/03/07 02:06:08;;;;;;;10.23;6.40;;;5.60;99.90;;;;;;5071864;28;20020;-82
2023/03/07 02:08:36;;;;;;;18.43;8.10;;;5.50;99.90;;;;;;5072794;28;20093;-82
2023/03/07 02:11:02;;;;;;;16.53;8.60;;;5.60;99.90;;;;;;5073251;28;20053;-82
2023/03/07 02:13:28;;;;;;;14.50;7.43;;;5.60;99.90;;;;;;5073981;28;20039;-82
2023/03/07 02:15:56;;;;;;;11.93;6.63;;;5.60;99.90;;;;;;5072366;28;20028;-81
2023/03/07 02:18:28;;;;;;;13.43;8.40;;;5.60;99.90;;;;;;5072504;28;20044;-81
2023/03/07 02:20:54;;;;;;;11.60;6.97;;;5.60;99.90;;;;;;5084971;28;20043;-82
2023/03/07 02:23:50;;;;;;;11.87;7.07;;;5.60;99.90;;;;;;5087744;28;20021;-82
2023/03/07 02:26:23;;;;;;;12.73;6.53;;;5.60;99.90;;;;;;5071996;28;20024;-82
2023/03/07 02:28:49;;;;;;;15.57;7.63;;;5.60;99.90;;;;;;5072178;28;20116;-82
2023/03/07 02:31:14;;;;;;;15.33;7.93;;;5.60;99.90;;;;;;5055440;28;20553;-83
2023/03/07 02:33:40;;;;;;;12.37;7.33;;;5.60;99.90;;;;;;5072099;28;20032;-82
2023/03/07 02:36:13;;;;;;;13.47;7.43;;;5.60;99.90;;;;;;5073290;28;20479;-82
2023/03/07 02:38:41;;;;;;;15.43;8.20;;;5.60;99.90;;;;;;5071905;28;20024;-82
2023/03/07 02:41:09;;;;;;;16.60;8.40;;;5.60;99.90;;;;;;5071456;28;20060;-82
2023/03/07 02:43:35;;;;;;;15.07;7.90;;;5.60;99.90;;;;;;5071833;28;20024;-82
2023/03/07 02:46:01;;;;;;;13.23;7.50;;;5.70;99.90;;;;;;5072005;28;20028;-82
2023/03/07 02:48:26;;;;;;;17.37;8.50;;;5.50;99.90;;;;;;5073295;28;20060;-83
2023/03/07 02:50:52;;;;;;;16.30;8.47;;;5.50;99.90;;;;;;5073187;28;20028;-83
2023/03/07 02:53:18;;;;;;;12.07;7.33;;;5.50;99.90;;;;;;5072250;28;20127;-83
2023/03/07 02:55:43;;;;;;;13.77;8.63;;;5.50;99.90;;;;;;5055013;28;20082;-82
2023/03/07 02:58:09;;;;;;;16.83;8.87;;;5.50;99.90;;;;;;5055076;28;20081;-82
2023/03/07 03:00:36;;;;;;;13.87;8.00;;;5.50;99.90;;;;;;5054537;28;20040;-82
2023/03/07 03:03:02;;;;;;;14.10;8.53;;;5.40;99.90;;;;;;5055800;28;20032;-82
2023/03/07 03:05:27;;;;;;;13.57;7.67;;;5.40;99.90;;;;;;5055342;28;20036;-82
2023/03/07 03:07:53;;;;;;;14.60;7.47;;;5.40;99.90;;;;;;5055244;28;20031;-82
2023/03/07 03:10:19;;;;;;;13.07;7.43;;;5.40;99.90;;;;;;5072274;28;20049;-81
2023/03/07 03:12:45;;;;;;;14.53;6.93;;;5.40;99.90;;;;;;5054931;28;20043;-82
2023/03/07 03:15:11;;;;;;;18.20;8.47;;;5.40;99.90;;;;;;5055214;28;20388;-82
2023/03/07 03:17:37;;;;;;;13.20;7.03;;;5.40;99.90;;;;;;5074022;28;20031;-83
2023/03/07 03:20:06;;;;;;;11.80;6.70;;;5.40;99.90;;;;;;5042426;28;20391;-83
2023/03/07 03:22:32;;;;;;;14.93;6.17;;;5.40;99.90;;;;;;5077108;28;20379;-82
2023/03/07 03:24:58;;;;;;;17.30;7.27;;;5.30;99.90;;;;;;5059082;28;20032;-81
2023/03/07 03:27:23;;;;;;;15.47;7.40;;;5.40;99.90;;;;;;5059339;28;20034;-82
2023/03/07 03:29:52;;;;;;;17.83;7.03;;;5.40;99.90;;;;;;5076933;28;20120;-82
2023/03/07 03:32:17;;;;;;;13.67;7.60;;;5.40;99.90;;;;;;5075345;28;20024;-82
2023/03/07 03:34:43;;;;;;;14.00;8.00;;;5.40;99.90;;;;;;5042231;28;20538;-82
2023/03/07 03:37:09;;;;;;;15.93;7.93;;;5.40;99.90;;;;;;5075393;28;20035;-82
2023/03/07 03:39:34;;;;;;;14.00;8.30;;;5.40;99.90;;;;;;5058599;28;20040;-81
2023/03/07 03:42:00;;;;;;;20.37;8.90;;;5.30;99.90;;;;;;5074850;28;20496;-82
2023/03/07 03:44:25;;;;;;;17.80;9.20;;;5.40;99.90;;;;;;5075499;28;20170;-83
2023/03/07 03:46:51;;;;;;;21.07;10.20;;;5.40;99.90;;;;;;5076665;28;20033;-82
2023/03/07 03:49:18;;;;;;;17.63;10.03;;;5.40;99.90;;;;;;5058662;28;20111;-82
2023/03/07 03:51:44;;;;;;;20.43;8.90;;;5.40;99.90;;;;;;5075055;28;20534;-82
2023/03/07 03:54:09;;;;;;;19.97;9.97;;;5.40;99.90;;;;;;5041894;28;20083;-83
2023/03/07 03:56:35;;;;;;;22.23;10.17;;;5.40;99.90;;;;;;5074884;28;20377;-82
2023/03/07 03:59:00;;;;;;;18.87;10.63;;;5.40;99.90;;;;;;5075136;28;20029;-82
2023/03/07 04:01:27;;;;;;;16.80;9.33;;;5.50;99.90;;;;;;5074876;28;20036;-81
2023/03/07 04:03:54;;;;;;;20.40;11.27;;;5.50;99.90;;;;;;5075239;28;20039;-81
2023/03/07 04:06:25;;;;;;;18.90;10.57;;;5.40;99.90;;;;;;5074845;28;20074;-81
2023/03/07 04:08:52;;;;;;;27.30;10.40;;;5.50;99.90;;;;;;5074742;28;20016;-80
2023/03/07 04:11:19;;;;;;;19.80;10.30;;;5.50;99.90;;;;;;5075966;28;20480;-81
2023/03/07 04:13:44;;;;;;;16.80;9.03;;;5.50;99.90;;;;;;5075526;28;20115;-81
2023/03/07 04:16:10;;;;;;;18.70;10.57;;;5.50;99.90;;;;;;5072894;28;20062;-81
2023/03/07 04:18:36;;;;;;;19.47;10.33;;;5.50;99.90;;;;;;5072511;28;20021;-81
2023/03/07 04:21:04;;;;;;;17.40;9.57;;;5.50;99.90;;;;;;5073931;28;20077;-81
2023/03/07 04:23:31;;;;;;;17.70;9.70;;;5.50;99.90;;;;;;5074482;28;20027;-81
2023/03/07 04:25:59;;;;;;;18.73;9.63;;;5.50;99.90;;;;;;5073605;28;20024;-81
2023/03/07 04:28:27;;;;;;;16.07;9.57;;;5.50;99.90;;;;;;5074147;28;20534;-82
2023/03/07 04:30:55;;;;;;;17.13;8.87;;;5.50;99.90;;;;;;5074560;28;20017;-82
2023/03/07 04:33:21;;;;;;;15.80;8.90;;;5.50;99.90;;;;;;5074659;28;20052;-81
2023/03/07 04:35:46;;;;;;;16.90;8.13;;;5.50;99.90;;;;;;5075309;28;20514;-81
2023/03/07 04:38:14;;;;;;;15.87;8.33;;;5.50;99.90;;;;;;5075571;28;20024;-82
2023/03/07 04:40:39;;;;;;;15.47;7.27;;;5.50;99.90;;;;;;5073662;28;20131;-82
2023/03/07 04:43:05;;;;;;;19.10;8.70;;;5.30;99.90;;;;;;5057859;28;20104;-83
2023/03/07 04:45:34;;;;;;;14.00;7.23;;;5.40;99.90;;;;;;5057435;28;20024;-83
2023/03/07 04:48:00;;;;;;;15.67;6.80;;;5.40;99.90;;;;;;5073836;28;20388;-82
2023/03/07 04:50:26;;;;;;;16.63;7.13;;;5.50;99.90;;;;;;5073753;28;20487;-82
2023/03/07 04:52:51;;;;;;;20.90;7.80;;;5.40;99.90;;;;;;5074063;28;20025;-81
2023/03/07 04:55:17;;;;;;;16.00;6.33;;;5.40;99.90;;;;;;5074271;28;20031;-82
2023/03/07 04:57:43;;;;;;;13.63;6.57;;;5.30;99.90;;;;;;5074294;28;20108;-83
2023/03/07 05:00:09;;;;;;;14.77;7.23;;;5.30;99.90;;;;;;5040738;28;20040;-83
2023/03/07 05:02:36;;;;;;;13.07;6.03;;;5.30;99.90;;;;;;5074087;28;20021;-83
2023/03/07 05:05:02;;;;;;;14.73;6.47;;;5.30;99.90;;;;;;5073836;28;20029;-83
2023/03/07 05:07:31;;;;;;;13.50;6.20;;;5.30;99.90;;;;;;5073698;28;20033;-83
2023/03/07 05:09:57;;;;;;;12.90;5.80;;;5.30;99.90;;;;;;5073886;28;20048;-83
2023/03/07 05:12:23;;;;;;;10.40;6.00;;;5.30;99.90;;;;;;5056230;28;20135;-81
2023/03/07 05:14:49;;;;;;;13.60;6.07;;;5.30;99.90;;;;;;5056770;28;20024;-82
2023/03/07 05:17:15;;;;;;;15.37;6.57;;;5.30;99.90;;;;;;5057071;28;20070;-81
2023/03/07 05:19:40;;;;;;;16.83;6.03;;;5.30;99.90;;;;;;5074525;28;20036;-80
2023/03/07 05:22:06;;;;;;;12.23;5.73;;;5.30;99.90;;;;;;5073566;28;20469;-80
2023/03/07 05:24:32;;;;;;;15.20;5.60;;;5.30;99.90;;;;;;5073428;28;20040;-81
2023/03/07 05:26:58;;;;;;;16.77;5.53;;;5.20;99.90;;;;;;5073314;28;20021;-81
2023/03/07 05:29:25;;;;;;;14.33;5.00;;;5.20;99.90;;;;;;5040144;28;20032;-82
2023/03/07 05:31:51;;;;;;;18.57;6.20;;;5.20;99.90;;;;;;5073781;28;20040;-82
2023/03/07 05:34:17;;;;;;;10.63;6.00;;;5.20;99.90;;;;;;5073148;28;20388;-81
2023/03/07 05:36:42;;;;;;;14.83;7.07;;;5.20;99.90;;;;;;5056301;28;20036;-82
2023/03/07 05:39:08;;;;;;;12.30;6.87;;;5.30;99.90;;;;;;5055708;28;20041;-82
2023/03/07 05:41:34;;;;;;;13.87;7.03;;;5.30;99.90;;;;;;5072836;28;20523;-83
2023/03/07 05:44:00;;;;;;;17.57;8.07;;;5.20;99.90;;;;;;5073265;28;20056;-82
2023/03/07 05:46:25;;;;;;;14.47;7.90;;;5.20;99.90;;;;;;5072738;28;20024;-82
2023/03/07 05:48:51;;;;;;;16.73;8.60;;;5.20;99.90;;;;;;5073255;28;20029;-82
2023/03/07 05:51:17;;;;;;;16.40;8.60;;;5.20;99.90;;;;;;5072763;28;20037;-81
2023/03/07 05:53:42;;;;;;;16.30;8.43;;;5.20;99.90;;;;;;5039487;28;20449;-82
2023/03/07 05:56:08;;;;;;;16.30;8.73;;;5.20;99.90;;;;;;5073834;28;20032;-82
2023/03/07 05:58:34;;;;;;;12.93;6.80;;;5.20;99.90;;;;;;5056367;28;20427;-81
2023/03/07 06:01:02;;;;;;;16.80;6.37;;;5.20;99.90;;;;;;5072870;28;20071;-81
2023/03/07 06:03:28;;;;;;;14.17;7.00;;;5.10;99.90;;;;;;5073931;28;20081;-81
2023/03/07 06:05:53;;;;;;;13.47;4.70;;;5.10;99.90;;;;;;5039429;28;20426;-81
2023/03/07 06:08:19;;;;;;;13.47;4.20;;;5.10;99.90;;;;;;5039305;28;20029;-82
2023/03/07 06:10:49;;;;;;;11.43;3.83;;;5.10;99.90;;;;;;5073577;28;20049;-82
2023/03/07 06:13:17;;;;;;;12.90;5.00;;;5.00;99.90;;;;;;5059787;28;20579;-82
2023/03/07 06:15:43;;;;;;;10.47;4.37;;;5.10;99.90;;;;;;5089915;28;20107;-82
2023/03/07 06:18:09;;;;;;;12.53;4.10;;;5.00;99.90;;;;;;5066478;28;20051;-81
2023/03/07 06:20:35;;;;;;;9.03;3.60;;;5.00;99.90;;;;;;5054559;28;20391;-83
2023/03/07 06:23:01;;;;;;;10.20;4.00;;;5.00;99.90;;;;;;5054327;28;20025;-82
2023/03/07 06:25:26;;;;;;;8.97;3.40;;;4.90;99.90;;;;;;5070442;28;20029;-81
2023/03/07 06:27:58;;;;;;;8.93;3.60;;;5.00;99.90;;;;;;5075242;28;20483;-82
2023/03/07 06:30:24;;;;;;;10.67;3.00;;;5.00;99.90;;;;;;5091648;28;20061;-82
2023/03/07 06:32:49;;;;;;;8.93;2.73;;;4.90;99.90;;;;;;5090820;28;20062;-83
2023/03/07 06:35:15;;;;;;;9.87;1.73;;;4.90;99.90;;;;;;5074135;28;20066;-82
2023/03/07 06:37:41;;;;;;;7.40;0.90;;;4.80;99.90;;;;;;5099190;28;20492;-83
2023/03/07 06:40:08;;;;;;;4.13;0.80;;;4.70;99.90;;;;;;5096071;28;20046;-83
2023/03/07 06:42:34;;;;;;;7.57;0.60;;;4.60;99.90;;;;;;5079815;28;20103;-83
2023/03/07 06:45:00;;;;;;;4.73;0.80;;;4.50;99.90;;;;;;5084480;28;20460;-83
2023/03/07 06:47:25;;;;;;;5.13;0.60;;;4.30;99.90;;;;;;5084178;28;20028;-82
2023/03/07 06:49:52;;;;;;;5.73;0.60;;;4.30;99.90;;;;;;5107522;28;20036;-82
2023/03/07 06:52:18;;;;;;;4.53;0.60;;;4.30;99.90;;;;;;5112241;28;20118;-82
2023/03/07 06:54:43;;;;;;;3.20;0.43;;;4.20;99.90;;;;;;5113704;28;20020;-82
2023/03/07 06:57:09;;;;;;;7.23;0.70;;;4.20;99.90;;;;;;5112650;28;20062;-82
2023/03/07 06:59:35;;;;;;;2.90;0.50;;;4.20;99.90;;;;;;5095411;28;20092;-82
2023/03/07 07:02:02;;;;;;;3.87;0.63;;;4.00;99.90;;;;;;5112006;28;20039;-82
2023/03/07 07:04:28;;;;;;;2.60;0.60;;;4.10;99.90;;;;;;5112217;28;20024;-83
2023/03/07 07:06:54;;;;;;;2.50;0.50;;;4.10;99.90;;;;;;5114031;28;20106;-82
2023/03/07 07:09:19;;;;;;;3.70;0.80;;;4.10;99.90;;;;;;5101385;28;20103;-82
2023/03/07 07:11:45;;;;;;;4.73;0.57;;;4.00;99.90;;;;;;5112253;28;20055;-82
2023/03/07 07:14:11;;;;;;;3.37;0.60;;;4.00;99.90;;;;;;5111427;28;20450;-81
2023/03/07 07:16:37;;;;;;;5.63;0.50;;;4.00;99.90;;;;;;5110615;28;20020;-81
2023/03/07 07:19:03;;;;;;;4.90;0.50;;;4.00;99.90;;;;;;5110716;28;20080;-81
2023/03/07 07:21:29;;;;;;;2.33;0.60;;;4.00;99.90;;;;;;5111794;28;20035;-82
2023/03/07 07:23:58;;;;;;;3.53;0.67;;;4.10;99.90;;;;;;5112776;28;20032;-82
2023/03/07 07:26:25;;;;;;;3.97;0.90;;;3.90;99.90;;;;;;5111862;28;20027;-81
2023/03/07 07:28:51;;;;;;;4.90;0.77;;;3.90;99.90;;;;;;5110010;28;20019;-82
2023/03/07 07:31:16;;;;;;;5.70;0.87;;;3.90;99.90;;;;;;5111381;28;20387;-82
2023/03/07 07:33:42;;;;;;;3.90;0.90;;;3.80;99.90;;;;;;5095035;28;20031;-83
2023/03/07 07:36:08;;;;;;;3.07;0.73;;;3.80;99.90;;;;;;5095219;28;20028;-81
2023/03/07 07:38:35;;;;;;;1.63;0.60;;;3.80;99.90;;;;;;5095378;28;20058;-82
2023/03/07 07:41:03;;;;;;;3.70;0.90;;;3.80;99.90;;;;;;5112509;28;20118;-82
2023/03/07 07:43:30;;;;;;;3.93;0.80;;;3.80;99.90;;;;;;5095788;28;20043;-82
2023/03/07 07:45:56;;;;;;;4.77;0.90;;;3.90;99.90;;;;;;5094943;28;20524;-81
2023/03/07 07:48:22;;;;;;;3.17;0.80;;;3.70;99.90;;;;;;5111845;28;20028;-81
2023/03/07 07:50:47;;;;;;;4.93;0.83;;;3.80;99.90;;;;;;5094930;28;20028;-82
2023/03/07 07:53:15;;;;;;;3.30;0.70;;;3.80;99.90;;;;;;5112097;28;20028;-82
2023/03/07 07:55:41;;;;;;;3.53;1.00;;;3.80;99.90;;;;;;5095428;28;20024;-81
2023/03/07 07:58:07;;;;;;;3.60;0.87;;;3.80;99.90;;;;;;5113054;28;20031;-82
2023/03/07 08:00:32;;;;;;;3.77;0.80;;;3.80;99.90;;;;;;5094958;28;20490;-82
2023/03/07 08:02:58;;;;;;;4.57;1.13;;;3.80;99.90;;;;;;5114339;28;20028;-82
2023/03/07 08:05:24;;;;;;;4.80;0.90;;;3.80;99.90;;;;;;5117118;28;20028;-82
2023/03/07 08:07:49;;;;;;;6.10;2.63;;;3.90;99.90;;;;;;5115364;28;20435;-82
2023/03/07 08:10:16;;;;;;;3.50;0.80;;;3.90;99.90;;;;;;5098336;28;20124;-82
2023/03/07 08:12:43;;;;;;;2.93;0.80;;;3.90;99.90;;;;;;5114898;28;20376;-82
2023/03/07 08:15:09;;;;;;;3.20;1.00;;;3.90;99.90;;;;;;5117039;28;20067;-82
2023/03/07 08:17:35;;;;;;;3.30;1.33;;;3.90;99.90;;;;;;5115490;28;20016;-82
2023/03/07 08:20:07;;;;;;;5.33;1.00;;;3.90;99.90;;;;;;5115363;28;20383;-82
2023/03/07 08:22:33;;;;;;;5.50;1.13;;;3.90;99.90;;;;;;5115376;28;20039;-82
2023/03/07 08:24:58;;;;;;;4.17;1.20;;;3.90;99.90;;;;;;5115511;28;20128;-82
2023/03/07 08:27:24;;;;;;;5.87;1.40;;;3.90;99.90;;;;;;5098016;28;20055;-82
2023/03/07 08:29:50;;;;;;;6.83;1.80;;;3.90;99.90;;;;;;5098084;28;20068;-82
2023/03/07 08:32:15;;;;;;;4.30;1.60;;;3.80;99.90;;;;;;5098011;28;20024;-81
2023/03/07 08:34:41;;;;;;;4.90;1.70;;;3.90;99.90;;;;;;5098316;28;20032;-82
2023/03/07 08:37:07;;;;;;;5.50;2.43;;;3.90;99.90;;;;;;5116758;28;20028;-82
2023/03/07 08:39:32;;;;;;;6.13;2.30;;;3.80;99.90;;;;;;5098095;28;20024;-82
2023/03/07 08:41:58;;;;;;;10.53;2.63;;;3.80;99.90;;;;;;5115719;28;20055;-82
2023/03/07 08:44:24;;;;;;;7.17;2.60;;;3.80;99.90;;;;;;5097972;28;20024;-82
2023/03/07 08:46:49;;;;;;;5.63;2.83;;;3.80;99.90;;;;;;5116010;28;20495;-82
2023/03/07 08:49:15;;;;;;;8.07;4.00;;;3.80;99.90;;;;;;5115807;28;20110;-81
2023/03/07 08:51:40;;;;;;;8.27;3.17;;;3.80;99.90;;;;;;5097726;28;20036;-81
2023/03/07 08:54:06;;;;;;;8.57;3.77;;;3.80;99.90;;;;;;5114543;28;20034;-82
2023/03/07 08:56:32;;;;;;;7.87;3.37;;;3.80;99.90;;;;;;5114235;28;20024;-82
2023/03/07 08:58:57;;;;;;;7.07;3.07;;;3.80;99.90;;;;;;5116195;28;20035;-82
2023/03/07 09:01:23;;;;;;;8.90;2.70;;;3.80;99.90;;;;;;5114810;28;20449;-81
2023/03/07 09:03:49;;;;;;;5.27;2.27;;;3.80;99.90;;;;;;5114256;28;20467;-82
2023/03/07 09:06:17;;;;;;;5.37;2.20;;;3.90;99.90;;;;;;5114454;28;20027;-81
2023/03/07 09:08:43;;;;;;;5.43;2.43;;;3.90;99.90;;;;;;5115981;28;20417;-81
2023/03/07 09:11:09;;;;;;;4.47;1.90;;;3.90;99.90;;;;;;5096693;28;20064;-81
2023/03/07 09:13:34;;;;;;;5.87;2.33;;;3.80;99.90;;;;;;5097251;28;20028;-82
2023/03/07 09:16:04;;;;;;;5.20;2.17;;;3.80;99.90;;;;;;5114314;28;20551;-82
2023/03/07 09:18:29;;;;;;;4.90;2.60;;;3.80;99.90;;;;;;5097140;28;20027;-82
2023/03/07 09:20:58;;;;;;;5.83;2.60;;;3.90;99.90;;;;;;5097273;28;20101;-81
2023/03/07 09:23:24;;;;;;;4.30;2.47;;;3.90;99.90;;;;;;5097209;28;20118;-81
2023/03/07 09:25:49;;;;;;;6.40;2.73;;;3.90;99.90;;;;;;5113585;28;20062;-81
2023/03/07 09:28:15;;;;;;;6.50;2.50;;;4.10;99.90;;;;;;5114090;28;20040;-81
2023/03/07 09:30:41;;;;;;;6.23;2.60;;;4.10;99.90;;;;;;5113878;28;20028;-81
2023/03/07 09:33:06;;;;;;;4.33;2.07;;;4.10;99.90;;;;;;5115604;28;20582;-82
2023/03/07 09:35:32;;;;;;;4.43;2.23;;;4.10;99.90;;;;;;5115341;28;20383;-82
2023/03/07 09:37:58;;;;;;;8.10;2.90;;;4.10;99.90;;;;;;5096582;28;20035;-81
2023/03/07 09:40:26;;;;;;;7.70;2.93;;;4.10;99.90;;;;;;5113107;28;20118;-82
2023/03/07 09:43:03;;;;;;;5.87;3.13;;;4.10;99.90;;;;;;5115334;28;20059;-82
2023/03/07 09:45:50;;;;;;;9.43;3.20;;;4.10;99.90;;;;;;5113738;28;20042;-82
2023/03/07 09:48:25;;;;;;;6.53;2.90;;;4.20;99.90;;;;;;5113465;28;20080;-82
2023/03/07 09:50:57;;;;;;;5.13;3.37;;;4.30;99.90;;;;;;5113445;28;20027;-82
2023/03/07 09:53:37;;;;;;;6.10;3.00;;;4.40;99.90;;;;;;5114508;28;20371;-82
2023/03/07 09:56:10;;;;;;;7.70;2.77;;;4.40;99.90;;;;;;5114472;28;20471;-81
2023/03/07 09:58:41;;;;;;;5.30;2.47;;;4.40;99.90;;;;;;5113457;28;20027;-81
2023/03/07 10:01:11;;;;;;;7.03;2.40;;;4.40;99.90;;;;;;5112754;28;20483;-82
2023/03/07 10:04:04;;;;;;;5.70;2.33;;;4.40;99.90;;;;;;5113182;28;20024;-82
2023/03/07 10:06:38;;;;;;;8.03;2.70;;;4.60;99.90;;;;;;5104739;28;20038;-82
2023/03/07 10:09:11;;;;;;;4.90;1.92;;;4.50;99.90;;;;;;5113493;28;20114;-81
2023/03/07 10:11:47;;;;;;;4.47;2.30;;;4.60;99.90;;;;;;5114070;28;20051;-82
2023/03/07 10:14:36;;;;;;;5.20;2.53;;;4.40;99.90;;;;;;5114266;28;20034;-82
2023/03/07 10:17:29;;;;;;;3.67;1.77;;;4.50;99.90;;;;;;5112375;28;20024;-82
2023/03/07 10:20:43;;;;;;;7.53;2.10;;;4.50;99.90;;;;;;5114229;28;20416;-81
2023/03/07 10:23:34;;;;;;;4.67;1.70;;;4.60;99.90;;;;;;5086302;28;20437;-82
2023/03/07 10:26:12;;;;;;;5.80;1.93;;;4.70;99.90;;;;;;5112433;28;20038;-82
2023/03/07 10:28:41;;;;;;;5.20;2.03;;;4.80;99.90;;;;;;5112558;28;20027;-81
2023/03/07 10:31:13;;;;;;;5.53;2.20;;;4.80;99.90;;;;;;5112743;28;20031;-81
2023/03/07 10:33:41;;;;;;;7.37;1.93;;;4.80;99.90;;;;;;5114122;28;20038;-81
2023/03/07 10:36:14;;;;;;;4.37;1.53;;;4.90;99.90;;;;;;5112415;28;20019;-82
2023/03/07 10:38:58;;;;;;;6.30;1.93;;;5.10;99.90;;;;;;5112836;28;20096;-81
2023/03/07 10:41:24;;;;;;;3.95;1.30;;;5.00;99.90;;;;;;5113331;28;20479;-81
2023/03/07 10:43:52;;;;;;;5.73;1.77;;;5.00;99.90;;;;;;5112629;28;20030;-81
2023/03/07 10:46:21;;;;;;;5.97;1.40;;;5.10;99.90;;;;;;5112403;28;20458;-82
2023/03/07 10:49:06;;;;;;;4.87;1.17;;;5.10;99.90;;;;;;5114089;28;20020;-81
2023/03/07 10:51:49;;;;;;;4.97;1.87;;;5.20;99.90;;;;;;5112660;28;20023;-81
2023/03/07 10:54:22;;;;;;;2.30;1.30;;;5.20;99.90;;;;;;5113990;28;20023;-80
2023/03/07 10:57:13;;;;;;;3.37;1.07;;;5.20;99.90;;;;;;5113699;28;20024;-81
2023/03/07 10:59:46;;;;;;;2.30;0.87;;;5.30;99.90;;;;;;5112524;28;20026;-81
2023/03/07 11:02:35;;;;;;;4.53;0.97;;;5.30;99.90;;;;;;5113334;28;20039;-81
2023/03/07 11:05:02;;;;;;;2.60;0.90;;;5.30;99.90;;;;;;5113621;28;20077;-81
2023/03/07 11:07:34;;;;;;;3.07;0.90;;;5.40;99.90;;;;;;5113438;28;20028;-83
2023/03/07 11:10:21;;;;;;;2.90;0.97;;;5.40;99.90;;;;;;5112474;28;20486;-82
2023/03/07 11:12:47;;;;;;;5.47;1.07;;;5.40;99.90;;;;;;5112163;28;20100;-80
2023/03/07 11:15:23;;;;;;;5.47;0.90;;;5.40;99.90;;;;;;5113483;28;20405;-81
2023/03/07 11:17:50;;;;;;;1.27;0.80;;;5.40;99.90;;;;;;5112469;28;20543;-81
2023/03/07 11:20:24;;;;;;;2.17;0.87;;;5.50;99.90;;;;;;5111926;28;20038;-81
2023/03/07 11:23:09;;;;;;;;;;;5.50;99.90;;;;;;5112799;28;20110;-81
2023/03/07 11:25:35;;;;;;;4.80;0.87;;;5.50;99.90;;;;;;5111692;28;19904;-81
2023/03/07 11:28:00;;;;;;;3.03;0.70;;;5.50;99.90;;;;;;5094897;28;20137;-81
2023/03/07 11:30:29;;;;;;;4.17;0.90;;;5.60;99.90;;;;;;5095067;28;20028;-81
2023/03/07 11:33:07;;;;;;;5.70;0.80;;;5.60;99.90;;;;;;5111979;28;20088;-81
2023/03/07 11:35:57;;;;;;;3.47;0.80;;;5.60;99.90;;;;;;5113790;28;20028;-80
2023/03/07 11:38:50;;;;;;;3.83;0.80;;;5.60;99.90;;;;;;5115327;28;20023;-82
2023/03/07 11:41:27;;;;;;;5.00;0.80;;;5.50;99.90;;;;;;5115507;28;20532;-81
2023/03/07 11:44:14;;;;;;;2.73;0.87;;;5.60;99.90;;;;;;5117368;28;20020;-81
2023/03/07 11:46:58;;;;;;;3.30;0.70;;;5.60;99.90;;;;;;5116016;28;20020;-81
2023/03/07 11:49:43;;;;;;;5.10;0.80;;;5.50;99.90;;;;;;5117143;28;20546;-81
2023/03/07 11:52:56;;;;;;;6.50;1.10;;;5.40;99.90;;;;;;5115891;28;20046;-81
2023/03/07 11:55:35;;;;;;;3.97;1.00;;;5.40;99.90;;;;;;5088909;28;20031;-80
2023/03/07 11:58:12;;;;;;;3.20;0.90;;;5.40;99.90;;;;;;5117524;27;20081;-80
2023/03/07 12:01:07;;;;;;;2.63;0.90;;;5.30;99.90;;;;;;5115272;28;20035;-81
2023/03/07 12:04:10;;;;;;;4.68;0.90;;;5.20;99.90;;;;;;5116489;28;20580;-81
2023/03/07 12:07:01;;;;;;;2.07;0.90;;;5.20;99.90;;;;;;5116672;28;20447;-81
2023/03/07 12:09:53;;;;;;;2.83;0.80;;;5.20;99.90;;;;;;5116449;28;20424;-82
2023/03/07 12:12:37;;;;;;;5.40;0.97;;;5.30;99.90;;;;;;5103527;28;20041;-81
2023/03/07 12:15:08;;;;;;;2.20;0.82;;;5.30;99.90;;;;;;5073360;28;20035;-81
2023/03/07 12:17:58;;;;;;;3.80;0.90;;;5.30;99.90;;;;;;5073589;28;20376;-81
2023/03/07 12:20:46;;;;;;;5.53;1.10;;;5.30;99.90;;;;;;5073874;28;20101;-81
2023/03/07 12:23:18;;;;;;;4.60;1.40;;;5.30;99.90;;;;;;5075818;28;20040;-82
2023/03/07 12:25:53;;;;;;;4.67;1.53;;;5.30;99.90;;;;;;5076054;28;20017;-82
2023/03/07 12:28:34;;;;;;;3.93;1.30;;;5.20;99.90;;;;;;5074523;28;20021;-81
2023/03/07 12:31:17;;;;;;;4.40;1.50;;;5.20;99.90;;;;;;5073952;28;20063;-82
2023/03/07 12:34:03;;;;;;;2.47;1.08;;;5.10;99.90;;;;;;5075835;28;20064;-82
2023/03/07 12:37:01;;;;;;;3.13;0.60;;;5.00;99.90;;;;;;5074520;28;20036;-82
2023/03/07 12:39:44;;;;;;;2.07;0.53;;;4.90;99.90;;;;;;5044115;28;20087;-83
2023/03/07 12:42:36;;;;;;;0.93;0.30;;;4.70;99.90;;;;;;5075404;28;20029;-83
2023/03/07 12:45:43;;;;;;;0.83;0.30;;;4.60;99.90;;;;;;5075449;28;20091;-82
2023/03/07 12:48:27;;;;;;;4.00;0.40;;;4.40;99.90;;;;;;4994633;28;20033;-82
2023/03/07 12:51:08;;;;;;;2.10;0.50;;;4.30;99.90;;;;;;5073948;28;20055;-83
2023/03/07 12:53:56;;;;;;;2.10;0.60;;;4.20;99.90;;;;;;5074030;28;20028;-82
2023/03/07 12:56:47;;;;;;;1.63;0.43;;;4.10;99.90;;;;;;5074239;28;20024;-81
2023/03/07 12:59:15;;;;;;;3.00;0.47;;;4.10;99.90;;;;;;5073985;28;20469;-82
2023/03/07 13:01:58;;;;;;;2.50;0.50;;;4.10;99.90;;;;;;5073862;28;20064;-82
2023/03/07 13:04:34;;;;;;;2.63;0.50;;;4.10;99.90;;;;;;5073498;28;20063;-83
2023/03/07 13:07:07;;;;;;;3.83;0.60;;;4.10;99.90;;;;;;5073890;28;20021;-83
2023/03/07 13:09:34;;;;;;;1.53;0.60;;;4.10;99.90;;;;;;5075340;28;20373;-82